sensor_id;sensor_type;location;lat;lon;timestamp;P1;durP1;ratioP1;P2;durP2;ratioP2
76059;SDS011;64759;52.220;5.170;2023-04-25T00:01:14;19.85;;;4.22;;
76059;SDS011;64759;52.220;5.170;2023-04-25T00:03:40;22.50;;;5.43;;
76059;SDS011;64759;52.220;5.170;2023-04-25T00:06:06;25.98;;;5.00;;
76059;SDS011;64759;52.220;5.170;2023-04-25T00:08:32;31.13;;;4.93;;
76059;SDS011;64759;52.220;5.170;2023-04-25T00:10:58;23.88;;;5.13;;
76059;SDS011;64759;52.220;5.170;2023-04-25T00:13:25;26.27;;;5.35;;
76059;SDS011;64759;52.220;5.170;2023-04-25T00:15:52;22.30;;;5.13;;
76059;SDS011;64759;52.220;5.170;2023-04-25T00:18:21;26.95;;;4.60;;
76059;SDS011;64759;52.220;5.170;2023-04-25T00:20:47;20.80;;;5.50;;
76059;SDS011;64759;52.220;5.170;2023-04-25T00:23:13;27.52;;;4.90;;
76059;SDS011;64759;52.220;5.170;2023-04-25T00:25:45;24.45;;;4.75;;
76059;SDS011;64759;52.220;5.170;2023-04-25T00:28:14;24.13;;;5.13;;
76059;SDS011;64759;52.220;5.170;2023-04-25T00:30:40;24.17;;;5.63;;
76059;SDS011;64759;52.220;5.170;2023-04-25T00:33:07;22.75;;;5.25;;
76059;SDS011;64759;52.220;5.170;2023-04-25T00:35:33;24.42;;;4.88;;
76059;SDS011;64759;52.220;5.170;2023-04-25T00:37:59;24.50;;;4.80;;
76059;SDS011;64759;52.220;5.170;2023-04-25T00:40:25;16.27;;;4.40;;
76059;SDS011;64759;52.220;5.170;2023-04-25T00:42:51;26.85;;;5.00;;
76059;SDS011;64759;52.220;5.170;2023-04-25T00:45:18;28.30;;;4.93;;
76059;SDS011;64759;52.220;5.170;2023-04-25T00:47:44;27.88;;;4.20;;
76059;SDS011;64759;52.220;5.170;2023-04-25T00:50:10;25.77;;;4.60;;
76059;SDS011;64759;52.220;5.170;2023-04-25T00:52:40;25.35;;;5.32;;
76059;SDS011;64759;52.220;5.170;2023-04-25T00:55:08;23.25;;;4.90;;
76059;SDS011;64759;52.220;5.170;2023-04-25T00:57:35;24.48;;;4.63;;
76059;SDS011;64759;52.220;5.170;2023-04-25T01:00:00;20.33;;;4.47;;
76059;SDS011;64759;52.220;5.170;2023-04-25T01:02:27;25.50;;;4.90;;
76059;SDS011;64759;52.220;5.170;2023-04-25T01:04:54;21.77;;;4.50;;
76059;SDS011;64759;52.220;5.170;2023-04-25T01:07:19;21.33;;;4.70;;
76059;SDS011;64759;52.220;5.170;2023-04-25T01:09:46;22.77;;;4.85;;
76059;SDS011;64759;52.220;5.170;2023-04-25T01:12:11;18.70;;;3.92;;
76059;SDS011;64759;52.220;5.170;2023-04-25T01:14:37;26.95;;;5.70;;
76059;SDS011;64759;52.220;5.170;2023-04-25T01:17:04;18.45;;;3.60;;
76059;SDS011;64759;52.220;5.170;2023-04-25T01:19:30;22.08;;;3.42;;
76059;SDS011;64759;52.220;5.170;2023-04-25T01:21:56;21.27;;;4.10;;
76059;SDS011;64759;52.220;5.170;2023-04-25T01:24:22;23.90;;;4.90;;
76059;SDS011;64759;52.220;5.170;2023-04-25T01:26:48;15.85;;;4.20;;
76059;SDS011;64759;52.220;5.170;2023-04-25T01:29:22;24.38;;;3.97;;
76059;SDS011;64759;52.220;5.170;2023-04-25T01:31:49;21.60;;;4.40;;
76059;SDS011;64759;52.220;5.170;2023-04-25T01:34:16;22.30;;;4.35;;
76059;SDS011;64759;52.220;5.170;2023-04-25T01:36:41;19.95;;;4.20;;
76059;SDS011;64759;52.220;5.170;2023-04-25T01:39:07;19.92;;;3.67;;
76059;SDS011;64759;52.220;5.170;2023-04-25T01:41:32;20.80;;;4.20;;
76059;SDS011;64759;52.220;5.170;2023-04-25T01:44:00;20.95;;;4.68;;
76059;SDS011;64759;52.220;5.170;2023-04-25T01:46:26;22.85;;;4.45;;
76059;SDS011;64759;52.220;5.170;2023-04-25T01:48:52;22.90;;;4.00;;
76059;SDS011;64759;52.220;5.170;2023-04-25T01:51:18;21.45;;;4.47;;
76059;SDS011;64759;52.220;5.170;2023-04-25T01:53:45;23.67;;;5.25;;
76059;SDS011;64759;52.220;5.170;2023-04-25T01:56:12;23.85;;;4.65;;
76059;SDS011;64759;52.220;5.170;2023-04-25T01:58:38;27.10;;;4.60;;
76059;SDS011;64759;52.220;5.170;2023-04-25T02:01:16;28.27;;;4.38;;
76059;SDS011;64759;52.220;5.170;2023-04-25T02:03:49;28.15;;;5.93;;
76059;SDS011;64759;52.220;5.170;2023-04-25T02:08:56;23.55;;;5.10;;
76059;SDS011;64759;52.220;5.170;2023-04-25T02:11:22;24.35;;;4.57;;
76059;SDS011;64759;52.220;5.170;2023-04-25T02:14:06;22.40;;;4.65;;
76059;SDS011;64759;52.220;5.170;2023-04-25T02:16:39;21.75;;;4.55;;
76059;SDS011;64759;52.220;5.170;2023-04-25T02:19:06;24.83;;;5.25;;
76059;SDS011;64759;52.220;5.170;2023-04-25T02:21:32;26.50;;;6.00;;
76059;SDS011;64759;52.220;5.170;2023-04-25T02:23:57;31.95;;;6.78;;
76059;SDS011;64759;52.220;5.170;2023-04-25T02:26:23;18.27;;;4.45;;
76059;SDS011;64759;52.220;5.170;2023-04-25T02:28:50;26.35;;;4.70;;
76059;SDS011;64759;52.220;5.170;2023-04-25T02:31:18;24.90;;;4.88;;
76059;SDS011;64759;52.220;5.170;2023-04-25T02:33:43;27.92;;;5.15;;
76059;SDS011;64759;52.220;5.170;2023-04-25T02:36:09;20.05;;;4.63;;
76059;SDS011;64759;52.220;5.170;2023-04-25T02:38:34;30.90;;;5.75;;
76059;SDS011;64759;52.220;5.170;2023-04-25T02:41:02;23.27;;;4.95;;
76059;SDS011;64759;52.220;5.170;2023-04-25T02:43:27;22.50;;;5.70;;
76059;SDS011;64759;52.220;5.170;2023-04-25T02:45:53;20.60;;;4.35;;
76059;SDS011;64759;52.220;5.170;2023-04-25T02:48:18;19.85;;;5.38;;
76059;SDS011;64759;52.220;5.170;2023-04-25T02:50:46;19.45;;;6.15;;
76059;SDS011;64759;52.220;5.170;2023-04-25T02:53:11;26.25;;;5.90;;
76059;SDS011;64759;52.220;5.170;2023-04-25T02:55:44;21.75;;;4.90;;
76059;SDS011;64759;52.220;5.170;2023-04-25T02:58:09;21.42;;;4.93;;
76059;SDS011;64759;52.220;5.170;2023-04-25T03:00:44;21.13;;;4.68;;
76059;SDS011;64759;52.220;5.170;2023-04-25T03:03:10;24.40;;;4.45;;
76059;SDS011;64759;52.220;5.170;2023-04-25T03:05:36;15.18;;;4.85;;
76059;SDS011;64759;52.220;5.170;2023-04-25T03:08:01;18.88;;;4.85;;
76059;SDS011;64759;52.220;5.170;2023-04-25T03:10:28;18.65;;;4.05;;
76059;SDS011;64759;52.220;5.170;2023-04-25T03:12:58;21.13;;;4.30;;
76059;SDS011;64759;52.220;5.170;2023-04-25T03:15:26;20.75;;;4.13;;
76059;SDS011;64759;52.220;5.170;2023-04-25T03:17:51;19.33;;;3.90;;
76059;SDS011;64759;52.220;5.170;2023-04-25T03:20:17;18.23;;;4.68;;
76059;SDS011;64759;52.220;5.170;2023-04-25T03:22:42;22.58;;;4.18;;
76059;SDS011;64759;52.220;5.170;2023-04-25T03:25:08;20.10;;;3.60;;
76059;SDS011;64759;52.220;5.170;2023-04-25T03:27:33;19.30;;;3.47;;
76059;SDS011;64759;52.220;5.170;2023-04-25T03:29:59;20.95;;;2.90;;
76059;SDS011;64759;52.220;5.170;2023-04-25T03:32:25;18.08;;;3.33;;
76059;SDS011;64759;52.220;5.170;2023-04-25T03:34:50;22.50;;;3.38;;
76059;SDS011;64759;52.220;5.170;2023-04-25T03:37:16;13.07;;;3.53;;
76059;SDS011;64759;52.220;5.170;2023-04-25T03:39:41;15.98;;;3.92;;
76059;SDS011;64759;52.220;5.170;2023-04-25T03:42:08;20.55;;;3.15;;
76059;SDS011;64759;52.220;5.170;2023-04-25T03:44:34;19.00;;;3.95;;
76059;SDS011;64759;52.220;5.170;2023-04-25T03:47:00;16.77;;;3.22;;
76059;SDS011;64759;52.220;5.170;2023-04-25T03:49:25;25.05;;;3.83;;
76059;SDS011;64759;52.220;5.170;2023-04-25T03:51:57;21.30;;;3.55;;
76059;SDS011;64759;52.220;5.170;2023-04-25T03:54:23;13.00;;;2.45;;
76059;SDS011;64759;52.220;5.170;2023-04-25T03:56:56;14.60;;;2.63;;
76059;SDS011;64759;52.220;5.170;2023-04-25T03:59:25;9.77;;;2.90;;
76059;SDS011;64759;52.220;5.170;2023-04-25T04:01:51;18.02;;;4.68;;
76059;SDS011;64759;52.220;5.170;2023-04-25T04:04:17;13.18;;;2.67;;
76059;SDS011;64759;52.220;5.170;2023-04-25T04:06:43;15.32;;;2.47;;
76059;SDS011;64759;52.220;5.170;2023-04-25T04:09:20;13.48;;;2.33;;
76059;SDS011;64759;52.220;5.170;2023-04-25T04:11:46;16.08;;;2.60;;
76059;SDS011;64759;52.220;5.170;2023-04-25T04:14:12;13.57;;;2.40;;
76059;SDS011;64759;52.220;5.170;2023-04-25T04:16:41;14.82;;;2.47;;
76059;SDS011;64759;52.220;5.170;2023-04-25T04:19:08;13.65;;;2.15;;
76059;SDS011;64759;52.220;5.170;2023-04-25T04:21:34;14.45;;;4.20;;
76059;SDS011;64759;52.220;5.170;2023-04-25T04:24:01;18.50;;;3.33;;
76059;SDS011;64759;52.220;5.170;2023-04-25T04:26:30;14.68;;;3.28;;
76059;SDS011;64759;52.220;5.170;2023-04-25T04:29:08;13.65;;;2.78;;
76059;SDS011;64759;52.220;5.170;2023-04-25T04:31:38;13.57;;;2.28;;
76059;SDS011;64759;52.220;5.170;2023-04-25T04:34:04;15.85;;;2.70;;
76059;SDS011;64759;52.220;5.170;2023-04-25T04:36:30;18.08;;;3.75;;
76059;SDS011;64759;52.220;5.170;2023-04-25T04:38:56;12.05;;;2.55;;
76059;SDS011;64759;52.220;5.170;2023-04-25T04:41:34;14.60;;;2.92;;
76059;SDS011;64759;52.220;5.170;2023-04-25T04:44:18;11.63;;;2.47;;
76059;SDS011;64759;52.220;5.170;2023-04-25T04:47:01;11.60;;;1.95;;
76059;SDS011;64759;52.220;5.170;2023-04-25T04:50:03;15.88;;;2.47;;
76059;SDS011;64759;52.220;5.170;2023-04-25T04:52:39;18.65;;;2.65;;
76059;SDS011;64759;52.220;5.170;2023-04-25T04:55:43;14.02;;;4.18;;
76059;SDS011;64759;52.220;5.170;2023-04-25T04:58:23;12.27;;;2.30;;
76059;SDS011;64759;52.220;5.170;2023-04-25T05:01:09;9.40;;;2.00;;
76059;SDS011;64759;52.220;5.170;2023-04-25T05:03:53;11.88;;;1.75;;
76059;SDS011;64759;52.220;5.170;2023-04-25T05:06:41;13.85;;;2.40;;
76059;SDS011;64759;52.220;5.170;2023-04-25T05:09:27;9.43;;;1.88;;
76059;SDS011;64759;52.220;5.170;2023-04-25T05:12:19;12.45;;;2.15;;
76059;SDS011;64759;52.220;5.170;2023-04-25T05:15:11;9.98;;;1.98;;
76059;SDS011;64759;52.220;5.170;2023-04-25T05:18:04;4.90;;;1.98;;
76059;SDS011;64759;52.220;5.170;2023-04-25T05:20:55;4.97;;;2.10;;
76059;SDS011;64759;52.220;5.170;2023-04-25T05:23:39;6.85;;;2.10;;
76059;SDS011;64759;52.220;5.170;2023-04-25T05:26:25;11.45;;;2.70;;
76059;SDS011;64759;52.220;5.170;2023-04-25T05:29:13;7.25;;;2.03;;
76059;SDS011;64759;52.220;5.170;2023-04-25T05:31:58;10.40;;;1.70;;
76059;SDS011;64759;52.220;5.170;2023-04-25T05:34:24;15.98;;;4.15;;
76059;SDS011;64759;52.220;5.170;2023-04-25T05:37:00;11.27;;;1.95;;
76059;SDS011;64759;52.220;5.170;2023-04-25T05:39:26;7.13;;;1.67;;
76059;SDS011;64759;52.220;5.170;2023-04-25T05:42:21;14.82;;;1.98;;
76059;SDS011;64759;52.220;5.170;2023-04-25T05:45:21;8.75;;;2.90;;
76059;SDS011;64759;52.220;5.170;2023-04-25T05:47:56;10.48;;;3.72;;
76059;SDS011;64759;52.220;5.170;2023-04-25T05:50:32;11.25;;;2.40;;
76059;SDS011;64759;52.220;5.170;2023-04-25T05:53:03;10.30;;;2.85;;
76059;SDS011;64759;52.220;5.170;2023-04-25T05:55:34;12.85;;;3.08;;
76059;SDS011;64759;52.220;5.170;2023-04-25T05:58:10;12.02;;;2.05;;
76059;SDS011;64759;52.220;5.170;2023-04-25T06:00:35;12.93;;;2.65;;
76059;SDS011;64759;52.220;5.170;2023-04-25T06:03:01;14.80;;;3.92;;
76059;SDS011;64759;52.220;5.170;2023-04-25T06:05:27;14.95;;;3.08;;
76059;SDS011;64759;52.220;5.170;2023-04-25T06:07:52;9.52;;;1.90;;
76059;SDS011;64759;52.220;5.170;2023-04-25T06:10:19;14.50;;;2.17;;
76059;SDS011;64759;52.220;5.170;2023-04-25T06:12:45;10.48;;;2.33;;
76059;SDS011;64759;52.220;5.170;2023-04-25T06:15:11;11.18;;;2.45;;
76059;SDS011;64759;52.220;5.170;2023-04-25T06:17:37;15.70;;;2.72;;
76059;SDS011;64759;52.220;5.170;2023-04-25T06:20:03;14.88;;;1.95;;
76059;SDS011;64759;52.220;5.170;2023-04-25T06:22:29;11.40;;;2.78;;
76059;SDS011;64759;52.220;5.170;2023-04-25T06:24:55;10.95;;;3.10;;
76059;SDS011;64759;52.220;5.170;2023-04-25T06:27:24;16.00;;;4.45;;
76059;SDS011;64759;52.220;5.170;2023-04-25T06:29:49;11.43;;;2.30;;
76059;SDS011;64759;52.220;5.170;2023-04-25T06:32:14;7.97;;;2.17;;
76059;SDS011;64759;52.220;5.170;2023-04-25T06:34:40;15.93;;;2.72;;
76059;SDS011;64759;52.220;5.170;2023-04-25T06:37:05;12.70;;;2.53;;
76059;SDS011;64759;52.220;5.170;2023-04-25T06:39:32;16.42;;;2.92;;
76059;SDS011;64759;52.220;5.170;2023-04-25T06:41:58;13.15;;;2.97;;
76059;SDS011;64759;52.220;5.170;2023-04-25T06:44:39;15.35;;;2.75;;
76059;SDS011;64759;52.220;5.170;2023-04-25T06:47:07;11.95;;;2.08;;
76059;SDS011;64759;52.220;5.170;2023-04-25T06:49:32;9.15;;;1.90;;
76059;SDS011;64759;52.220;5.170;2023-04-25T06:51:58;18.77;;;3.00;;
76059;SDS011;64759;52.220;5.170;2023-04-25T06:54:23;12.23;;;2.35;;
76059;SDS011;64759;52.220;5.170;2023-04-25T06:56:58;8.98;;;2.28;;
76059;SDS011;64759;52.220;5.170;2023-04-25T06:59:26;12.68;;;2.35;;
76059;SDS011;64759;52.220;5.170;2023-04-25T07:01:51;14.05;;;2.78;;
76059;SDS011;64759;52.220;5.170;2023-04-25T07:04:20;14.77;;;2.42;;
76059;SDS011;64759;52.220;5.170;2023-04-25T07:06:52;10.75;;;2.65;;
76059;SDS011;64759;52.220;5.170;2023-04-25T07:09:22;13.35;;;3.60;;
76059;SDS011;64759;52.220;5.170;2023-04-25T07:11:50;14.93;;;2.22;;
76059;SDS011;64759;52.220;5.170;2023-04-25T07:14:17;17.52;;;3.13;;
76059;SDS011;64759;52.220;5.170;2023-04-25T07:16:42;13.35;;;2.20;;
76059;SDS011;64759;52.220;5.170;2023-04-25T07:19:07;15.57;;;3.08;;
76059;SDS011;64759;52.220;5.170;2023-04-25T07:21:34;15.32;;;2.42;;
76059;SDS011;64759;52.220;5.170;2023-04-25T07:24:02;11.80;;;2.13;;
76059;SDS011;64759;52.220;5.170;2023-04-25T07:26:32;10.48;;;2.42;;
76059;SDS011;64759;52.220;5.170;2023-04-25T07:29:20;16.48;;;2.38;;
76059;SDS011;64759;52.220;5.170;2023-04-25T07:31:46;14.55;;;3.45;;
76059;SDS011;64759;52.220;5.170;2023-04-25T07:34:12;15.80;;;3.03;;
76059;SDS011;64759;52.220;5.170;2023-04-25T07:36:38;14.55;;;2.28;;
76059;SDS011;64759;52.220;5.170;2023-04-25T07:39:04;14.32;;;2.50;;
76059;SDS011;64759;52.220;5.170;2023-04-25T07:41:30;15.73;;;2.67;;
76059;SDS011;64759;52.220;5.170;2023-04-25T07:43:55;19.80;;;2.05;;
76059;SDS011;64759;52.220;5.170;2023-04-25T07:46:21;11.45;;;2.45;;
76059;SDS011;64759;52.220;5.170;2023-04-25T07:48:46;15.43;;;2.30;;
76059;SDS011;64759;52.220;5.170;2023-04-25T07:51:12;7.53;;;2.38;;
76059;SDS011;64759;52.220;5.170;2023-04-25T07:53:38;9.00;;;2.70;;
76059;SDS011;64759;52.220;5.170;2023-04-25T07:56:08;10.38;;;2.53;;
76059;SDS011;64759;52.220;5.170;2023-04-25T07:58:37;9.18;;;2.83;;
76059;SDS011;64759;52.220;5.170;2023-04-25T08:01:05;14.25;;;2.15;;
76059;SDS011;64759;52.220;5.170;2023-04-25T08:03:33;15.15;;;2.97;;
76059;SDS011;64759;52.220;5.170;2023-04-25T08:06:02;12.68;;;2.40;;
76059;SDS011;64759;52.220;5.170;2023-04-25T08:08:31;13.05;;;2.55;;
76059;SDS011;64759;52.220;5.170;2023-04-25T08:10:56;13.10;;;2.65;;
76059;SDS011;64759;52.220;5.170;2023-04-25T08:13:22;15.77;;;2.80;;
76059;SDS011;64759;52.220;5.170;2023-04-25T08:15:49;13.48;;;2.65;;
76059;SDS011;64759;52.220;5.170;2023-04-25T08:18:14;12.68;;;1.92;;
76059;SDS011;64759;52.220;5.170;2023-04-25T08:20:41;12.52;;;2.80;;
76059;SDS011;64759;52.220;5.170;2023-04-25T08:23:09;12.80;;;2.35;;
76059;SDS011;64759;52.220;5.170;2023-04-25T08:25:54;16.05;;;2.15;;
76059;SDS011;64759;52.220;5.170;2023-04-25T08:28:24;9.50;;;2.80;;
76059;SDS011;64759;52.220;5.170;2023-04-25T08:30:50;12.65;;;2.72;;
76059;SDS011;64759;52.220;5.170;2023-04-25T08:33:17;12.98;;;1.90;;
76059;SDS011;64759;52.220;5.170;2023-04-25T08:36:09;9.35;;;1.90;;
76059;SDS011;64759;52.220;5.170;2023-04-25T08:38:35;9.85;;;2.17;;
76059;SDS011;64759;52.220;5.170;2023-04-25T08:41:03;12.90;;;1.75;;
76059;SDS011;64759;52.220;5.170;2023-04-25T08:43:31;4.97;;;1.52;;
76059;SDS011;64759;52.220;5.170;2023-04-25T08:45:58;5.30;;;1.30;;
76059;SDS011;64759;52.220;5.170;2023-04-25T08:48:41;7.07;;;1.55;;
76059;SDS011;64759;52.220;5.170;2023-04-25T08:51:09;8.45;;;1.73;;
76059;SDS011;64759;52.220;5.170;2023-04-25T08:53:35;8.57;;;1.80;;
76059;SDS011;64759;52.220;5.170;2023-04-25T08:56:21;8.27;;;1.88;;
76059;SDS011;64759;52.220;5.170;2023-04-25T08:58:48;8.98;;;2.38;;
76059;SDS011;64759;52.220;5.170;2023-04-25T09:01:17;7.00;;;1.50;;
76059;SDS011;64759;52.220;5.170;2023-04-25T09:03:48;7.10;;;1.73;;
76059;SDS011;64759;52.220;5.170;2023-04-25T09:06:14;9.48;;;2.10;;
76059;SDS011;64759;52.220;5.170;2023-04-25T09:08:41;13.30;;;2.72;;
76059;SDS011;64759;52.220;5.170;2023-04-25T09:11:07;6.10;;;1.42;;
76059;SDS011;64759;52.220;5.170;2023-04-25T09:13:33;12.02;;;1.50;;
76059;SDS011;64759;52.220;5.170;2023-04-25T09:16:24;10.98;;;1.90;;
76059;SDS011;64759;52.220;5.170;2023-04-25T09:19:11;8.88;;;1.55;;
76059;SDS011;64759;52.220;5.170;2023-04-25T09:21:48;10.63;;;1.67;;
76059;SDS011;64759;52.220;5.170;2023-04-25T09:24:14;9.77;;;1.75;;
76059;SDS011;64759;52.220;5.170;2023-04-25T09:26:40;12.93;;;1.45;;
76059;SDS011;64759;52.220;5.170;2023-04-25T09:29:06;10.15;;;1.38;;
76059;SDS011;64759;52.220;5.170;2023-04-25T09:31:33;11.98;;;1.80;;
76059;SDS011;64759;52.220;5.170;2023-04-25T09:34:00;6.90;;;2.05;;
76059;SDS011;64759;52.220;5.170;2023-04-25T09:36:27;8.98;;;1.58;;
76059;SDS011;64759;52.220;5.170;2023-04-25T09:39:01;5.75;;;1.63;;
76059;SDS011;64759;52.220;5.170;2023-04-25T09:41:28;9.63;;;2.92;;
76059;SDS011;64759;52.220;5.170;2023-04-25T09:46:32;8.98;;;1.30;;
76059;SDS011;64759;52.220;5.170;2023-04-25T09:48:59;5.72;;;1.30;;
76059;SDS011;64759;52.220;5.170;2023-04-25T09:51:37;5.30;;;1.48;;
76059;SDS011;64759;52.220;5.170;2023-04-25T09:54:04;4.97;;;1.20;;
76059;SDS011;64759;52.220;5.170;2023-04-25T09:56:35;8.32;;;1.48;;
76059;SDS011;64759;52.220;5.170;2023-04-25T09:59:05;8.93;;;1.77;;
76059;SDS011;64759;52.220;5.170;2023-04-25T10:01:33;10.85;;;1.95;;
76059;SDS011;64759;52.220;5.170;2023-04-25T10:04:07;6.10;;;1.65;;
76059;SDS011;64759;52.220;5.170;2023-04-25T10:06:51;10.77;;;2.85;;
76059;SDS011;64759;52.220;5.170;2023-04-25T10:09:19;7.32;;;1.40;;
76059;SDS011;64759;52.220;5.170;2023-04-25T10:11:46;4.43;;;1.20;;
76059;SDS011;64759;52.220;5.170;2023-04-25T10:14:15;5.95;;;1.50;;
76059;SDS011;64759;52.220;5.170;2023-04-25T10:16:41;9.82;;;1.83;;
76059;SDS011;64759;52.220;5.170;2023-04-25T10:19:07;7.95;;;2.53;;
76059;SDS011;64759;52.220;5.170;2023-04-25T10:21:34;10.77;;;1.48;;
76059;SDS011;64759;52.220;5.170;2023-04-25T10:24:16;5.18;;;1.67;;
76059;SDS011;64759;52.220;5.170;2023-04-25T10:26:42;5.40;;;1.42;;
76059;SDS011;64759;52.220;5.170;2023-04-25T10:29:08;7.63;;;1.55;;
76059;SDS011;64759;52.220;5.170;2023-04-25T10:31:38;7.93;;;1.33;;
76059;SDS011;64759;52.220;5.170;2023-04-25T10:34:10;7.05;;;1.70;;
76059;SDS011;64759;52.220;5.170;2023-04-25T10:36:35;6.22;;;1.60;;
76059;SDS011;64759;52.220;5.170;2023-04-25T10:39:03;6.53;;;1.55;;
76059;SDS011;64759;52.220;5.170;2023-04-25T10:42:08;9.32;;;1.75;;
76059;SDS011;64759;52.220;5.170;2023-04-25T10:44:28;8.45;;;1.73;;
76059;SDS011;64759;52.220;5.170;2023-04-25T10:46:55;7.55;;;1.65;;
76059;SDS011;64759;52.220;5.170;2023-04-25T10:49:32;6.50;;;1.33;;
76059;SDS011;64759;52.220;5.170;2023-04-25T10:57:27;9.05;;;1.00;;
76059;SDS011;64759;52.220;5.170;2023-04-25T11:00:14;5.43;;;1.20;;
76059;SDS011;64759;52.220;5.170;2023-04-25T11:02:48;7.40;;;1.48;;
76059;SDS011;64759;52.220;5.170;2023-04-25T11:05:26;3.88;;;1.13;;
76059;SDS011;64759;52.220;5.170;2023-04-25T11:07:56;4.50;;;1.10;;
76059;SDS011;64759;52.220;5.170;2023-04-25T11:10:26;5.93;;;1.05;;
76059;SDS011;64759;52.220;5.170;2023-04-25T11:12:55;8.02;;;2.50;;
76059;SDS011;64759;52.220;5.170;2023-04-25T11:15:21;5.03;;;1.50;;
76059;SDS011;64759;52.220;5.170;2023-04-25T11:17:47;6.88;;;1.40;;
76059;SDS011;64759;52.220;5.170;2023-04-25T11:20:13;6.13;;;1.45;;
76059;SDS011;64759;52.220;5.170;2023-04-25T11:22:40;7.15;;;1.20;;
76059;SDS011;64759;52.220;5.170;2023-04-25T11:25:06;10.35;;;1.90;;
76059;SDS011;64759;52.220;5.170;2023-04-25T11:27:33;10.40;;;1.33;;
76059;SDS011;64759;52.220;5.170;2023-04-25T11:30:09;4.32;;;1.23;;
76059;SDS011;64759;52.220;5.170;2023-04-25T11:32:36;13.82;;;2.58;;
76059;SDS011;64759;52.220;5.170;2023-04-25T11:35:01;5.03;;;1.20;;
76059;SDS011;64759;52.220;5.170;2023-04-25T11:37:26;5.15;;;1.50;;
76059;SDS011;64759;52.220;5.170;2023-04-25T11:39:52;7.68;;;1.50;;
76059;SDS011;64759;52.220;5.170;2023-04-25T11:42:17;3.58;;;1.20;;
76059;SDS011;64759;52.220;5.170;2023-04-25T11:44:43;6.78;;;1.33;;
76059;SDS011;64759;52.220;5.170;2023-04-25T11:47:08;4.55;;;1.20;;
76059;SDS011;64759;52.220;5.170;2023-04-25T11:49:35;5.70;;;1.30;;
76059;SDS011;64759;52.220;5.170;2023-04-25T11:52:00;4.75;;;1.10;;
76059;SDS011;64759;52.220;5.170;2023-04-25T11:54:26;6.10;;;1.67;;
76059;SDS011;64759;52.220;5.170;2023-04-25T11:56:51;4.07;;;1.10;;
76059;SDS011;64759;52.220;5.170;2023-04-25T11:59:17;11.48;;;2.00;;
76059;SDS011;64759;52.220;5.170;2023-04-25T12:01:49;5.93;;;1.90;;
76059;SDS011;64759;52.220;5.170;2023-04-25T12:04:16;5.88;;;1.45;;
76059;SDS011;64759;52.220;5.170;2023-04-25T12:06:43;10.27;;;1.88;;
76059;SDS011;64759;52.220;5.170;2023-04-25T12:09:12;8.13;;;1.85;;
76059;SDS011;64759;52.220;5.170;2023-04-25T12:11:47;7.63;;;1.60;;
76059;SDS011;64759;52.220;5.170;2023-04-25T12:14:26;5.95;;;1.40;;
76059;SDS011;64759;52.220;5.170;2023-04-25T12:16:57;7.85;;;1.88;;
76059;SDS011;64759;52.220;5.170;2023-04-25T12:21:49;8.15;;;1.90;;
76059;SDS011;64759;52.220;5.170;2023-04-25T12:24:20;8.60;;;1.50;;
76059;SDS011;64759;52.220;5.170;2023-04-25T12:29:17;5.85;;;1.75;;
76059;SDS011;64759;52.220;5.170;2023-04-25T12:31:43;10.10;;;3.85;;
76059;SDS011;64759;52.220;5.170;2023-04-25T12:34:10;4.20;;;1.30;;
76059;SDS011;64759;52.220;5.170;2023-04-25T12:36:35;10.00;;;1.42;;
76059;SDS011;64759;52.220;5.170;2023-04-25T12:39:01;13.90;;;2.17;;
76059;SDS011;64759;52.220;5.170;2023-04-25T12:41:29;6.07;;;1.95;;
76059;SDS011;64759;52.220;5.170;2023-04-25T12:43:55;8.10;;;2.28;;
76059;SDS011;64759;52.220;5.170;2023-04-25T12:46:20;7.85;;;2.30;;
76059;SDS011;64759;52.220;5.170;2023-04-25T12:48:47;9.27;;;1.85;;
76059;SDS011;64759;52.220;5.170;2023-04-25T12:51:13;5.45;;;1.75;;
76059;SDS011;64759;52.220;5.170;2023-04-25T12:53:39;7.78;;;1.92;;
76059;SDS011;64759;52.220;5.170;2023-04-25T12:56:06;6.82;;;1.20;;
76059;SDS011;64759;52.220;5.170;2023-04-25T12:58:32;5.20;;;1.25;;
76059;SDS011;64759;52.220;5.170;2023-04-25T13:00:58;4.80;;;1.15;;
76059;SDS011;64759;52.220;5.170;2023-04-25T13:03:24;3.05;;;1.10;;
76059;SDS011;64759;52.220;5.170;2023-04-25T13:05:50;3.17;;;1.17;;
76059;SDS011;64759;52.220;5.170;2023-04-25T13:08:17;3.88;;;1.40;;
76059;SDS011;64759;52.220;5.170;2023-04-25T13:10:47;8.27;;;1.73;;
76059;SDS011;64759;52.220;5.170;2023-04-25T13:13:12;7.85;;;1.45;;
76059;SDS011;64759;52.220;5.170;2023-04-25T13:15:38;5.28;;;1.63;;
76059;SDS011;64759;52.220;5.170;2023-04-25T13:18:04;9.23;;;1.20;;
76059;SDS011;64759;52.220;5.170;2023-04-25T13:20:32;7.50;;;1.80;;
76059;SDS011;64759;52.220;5.170;2023-04-25T13:22:58;7.47;;;1.98;;
76059;SDS011;64759;52.220;5.170;2023-04-25T13:25:23;8.10;;;2.33;;
76059;SDS011;64759;52.220;5.170;2023-04-25T13:27:50;4.00;;;1.30;;
76059;SDS011;64759;52.220;5.170;2023-04-25T13:30:15;5.15;;;1.60;;
76059;SDS011;64759;52.220;5.170;2023-04-25T13:32:41;7.22;;;1.27;;
76059;SDS011;64759;52.220;5.170;2023-04-25T13:35:10;9.60;;;1.80;;
76059;SDS011;64759;52.220;5.170;2023-04-25T13:37:38;7.18;;;1.90;;
76059;SDS011;64759;52.220;5.170;2023-04-25T13:40:04;6.30;;;1.27;;
76059;SDS011;64759;52.220;5.170;2023-04-25T13:42:37;7.65;;;1.35;;
76059;SDS011;64759;52.220;5.170;2023-04-25T13:45:03;6.32;;;1.23;;
76059;SDS011;64759;52.220;5.170;2023-04-25T13:47:29;8.52;;;1.75;;
76059;SDS011;64759;52.220;5.170;2023-04-25T13:49:56;9.65;;;1.90;;
76059;SDS011;64759;52.220;5.170;2023-04-25T13:52:22;5.55;;;1.35;;
76059;SDS011;64759;52.220;5.170;2023-04-25T13:54:49;5.35;;;1.58;;
76059;SDS011;64759;52.220;5.170;2023-04-25T13:57:17;4.70;;;1.58;;
76059;SDS011;64759;52.220;5.170;2023-04-25T13:59:43;9.00;;;1.75;;
76059;SDS011;64759;52.220;5.170;2023-04-25T14:02:08;6.90;;;1.63;;
76059;SDS011;64759;52.220;5.170;2023-04-25T14:04:34;15.32;;;2.08;;
76059;SDS011;64759;52.220;5.170;2023-04-25T14:07:00;8.63;;;1.67;;
76059;SDS011;64759;52.220;5.170;2023-04-25T14:09:25;5.85;;;2.00;;
76059;SDS011;64759;52.220;5.170;2023-04-25T14:11:52;6.35;;;1.63;;
76059;SDS011;64759;52.220;5.170;2023-04-25T14:14:21;7.03;;;1.58;;
76059;SDS011;64759;52.220;5.170;2023-04-25T14:16:47;5.03;;;1.35;;
76059;SDS011;64759;52.220;5.170;2023-04-25T14:19:14;8.68;;;1.50;;
76059;SDS011;64759;52.220;5.170;2023-04-25T14:21:41;7.63;;;1.60;;
76059;SDS011;64759;52.220;5.170;2023-04-25T14:24:07;5.85;;;1.73;;
76059;SDS011;64759;52.220;5.170;2023-04-25T14:26:36;6.07;;;1.73;;
76059;SDS011;64759;52.220;5.170;2023-04-25T14:29:02;8.32;;;1.48;;
76059;SDS011;64759;52.220;5.170;2023-04-25T14:31:37;6.47;;;1.52;;
76059;SDS011;64759;52.220;5.170;2023-04-25T14:34:03;5.45;;;1.15;;
76059;SDS011;64759;52.220;5.170;2023-04-25T14:36:30;9.38;;;1.40;;
76059;SDS011;64759;52.220;5.170;2023-04-25T14:38:57;5.35;;;1.15;;
76059;SDS011;64759;52.220;5.170;2023-04-25T14:41:24;4.88;;;1.30;;
76059;SDS011;64759;52.220;5.170;2023-04-25T14:43:52;5.65;;;1.17;;
76059;SDS011;64759;52.220;5.170;2023-04-25T14:46:18;7.80;;;1.73;;
76059;SDS011;64759;52.220;5.170;2023-04-25T14:48:49;8.63;;;1.67;;
76059;SDS011;64759;52.220;5.170;2023-04-25T14:51:15;5.38;;;1.27;;
76059;SDS011;64759;52.220;5.170;2023-04-25T14:53:41;7.05;;;1.23;;
76059;SDS011;64759;52.220;5.170;2023-04-25T14:56:07;8.82;;;2.10;;
76059;SDS011;64759;52.220;5.170;2023-04-25T14:58:33;9.77;;;1.85;;
76059;SDS011;64759;52.220;5.170;2023-04-25T15:00:59;5.85;;;1.85;;
76059;SDS011;64759;52.220;5.170;2023-04-25T15:03:25;7.45;;;1.40;;
76059;SDS011;64759;52.220;5.170;2023-04-25T15:05:51;5.38;;;1.63;;
76059;SDS011;64759;52.220;5.170;2023-04-25T15:08:17;5.13;;;1.20;;